createdAt,value
2022-11-29T00:00:06.826Z,100.00
2022-11-29T00:02:46.942Z,99.88
2022-11-29T00:05:19.849Z,99.42
2022-11-29T00:07:52.687Z,99.80
2022-11-29T00:10:25.503Z,99.65
2022-11-29T00:12:58.286Z,99.48
2022-11-29T00:15:31.131Z,99.84
2022-11-29T00:18:05.619Z,100.00
2022-11-29T00:20:40.118Z,100.00
2022-11-29T00:23:12.950Z,100.00
2022-11-29T00:25:45.800Z,100.00
2022-11-29T00:28:18.636Z,100.00
2022-11-29T00:30:51.484Z,100.00
2022-11-29T00:33:25.782Z,100.00
2022-11-29T00:36:02.229Z,100.00
2022-11-29T00:38:35.076Z,100.00
2022-11-29T00:41:08.308Z,100.00
2022-11-29T00:43:41.212Z,100.00
2022-11-29T00:46:14.122Z,100.00
2022-11-29T00:48:48.411Z,100.00
2022-11-29T00:51:21.174Z,99.63
2022-11-29T00:53:53.978Z,99.90
2022-11-29T00:56:26.808Z,100.00
2022-11-29T00:58:59.620Z,100.00
2022-11-29T01:01:32.422Z,100.00
2022-11-29T01:04:06.699Z,99.65
2022-11-29T01:06:39.600Z,99.98
2022-11-29T01:09:12.813Z,100.00
2022-11-29T01:11:45.739Z,100.00
2022-11-29T01:14:18.563Z,100.00
2022-11-29T01:16:51.419Z,100.00
2022-11-29T01:19:25.872Z,100.00
2022-11-29T01:21:58.715Z,100.00
2022-11-29T01:24:31.785Z,100.00
2022-11-29T01:27:07.067Z,100.00
2022-11-29T01:29:39.996Z,99.95
2022-11-29T01:32:13.326Z,100.00
2022-11-29T01:34:47.562Z,100.00
2022-11-29T01:37:20.408Z,100.00
2022-11-29T01:39:53.183Z,100.00
2022-11-29T01:42:26.082Z,100.00
2022-11-29T01:45:15.536Z,100.00
2022-11-29T01:47:51.430Z,100.00
2022-11-29T01:50:26.006Z,100.00
2022-11-29T01:52:59.376Z,100.00
2022-11-29T01:55:33.033Z,100.00
2022-11-29T01:58:08.972Z,100.00
2022-11-29T02:00:41.960Z,100.00
2022-11-29T02:03:16.756Z,100.00
2022-11-29T02:05:53.009Z,100.00
2022-11-29T02:08:30.964Z,100.00
2022-11-29T02:11:33.183Z,100.00
2022-11-29T02:14:19.473Z,100.00
2022-11-29T02:17:00.440Z,100.00
2022-11-29T02:20:27.756Z,100.00
2022-11-29T02:23:14.021Z,100.00
2022-11-29T02:26:01.506Z,100.00
2022-11-29T02:29:03.051Z,100.00
2022-11-29T02:31:59.771Z,100.00
2022-11-29T02:34:59.272Z,100.00
2022-11-29T02:38:00.103Z,100.00
2022-11-29T02:40:52.548Z,100.00
2022-11-29T02:43:41.155Z,100.00
2022-11-29T02:46:27.709Z,100.00
2022-11-29T02:49:10.910Z,100.00
2022-11-29T02:51:53.376Z,100.00
2022-11-29T02:54:33.306Z,100.00
2022-11-29T02:57:20.403Z,100.00
2022-11-29T03:00:02.356Z,100.00
2022-11-29T03:02:41.628Z,100.00
2022-11-29T03:05:23.074Z,100.00
2022-11-29T03:08:06.700Z,100.00
2022-11-29T03:10:51.445Z,100.00
2022-11-29T03:13:40.858Z,100.00
2022-11-29T03:16:25.743Z,100.00
2022-11-29T03:19:06.850Z,100.00
2022-11-29T03:21:46.803Z,100.00
2022-11-29T03:24:27.357Z,100.00
2022-11-29T03:27:05.436Z,100.00
2022-11-29T03:29:45.654Z,100.00
2022-11-29T03:32:27.391Z,100.00
2022-11-29T03:35:07.543Z,100.00
2022-11-29T03:37:49.339Z,100.00
2022-11-29T03:40:30.449Z,100.00
2022-11-29T03:43:08.652Z,100.00
2022-11-29T03:45:49.530Z,99.95
2022-11-29T03:48:30.341Z,100.00
2022-11-29T03:51:08.375Z,100.00
2022-11-29T03:53:48.212Z,100.00
2022-11-29T03:56:29.991Z,99.62
2022-11-29T03:59:13.194Z,99.52
2022-11-29T04:02:17.399Z,100.00
2022-11-29T04:05:13.556Z,100.00
2022-11-29T04:08:00.865Z,100.00
2022-11-29T04:10:54.115Z,100.00
2022-11-29T04:13:52.696Z,100.00
2022-11-29T04:16:47.006Z,99.73
2022-11-29T04:19:50.701Z,99.69
2022-11-29T04:22:54.460Z,100.00
2022-11-29T04:26:04.284Z,100.00
2022-11-29T04:29:06.319Z,100.00
2022-11-29T04:31:53.222Z,100.00
2022-11-29T04:34:47.681Z,100.00
2022-11-29T04:37:38.671Z,99.62
2022-11-29T04:40:27.260Z,99.11
2022-11-29T04:43:18.504Z,98.78
2022-11-29T04:46:24.776Z,99.12
2022-11-29T04:49:20.476Z,98.80
2022-11-29T04:52:09.560Z,98.88
2022-11-29T04:54:50.062Z,98.73
2022-11-29T04:57:33.757Z,98.85
2022-11-29T05:00:10.062Z,98.76
2022-11-29T05:02:55.555Z,98.74
2022-11-29T05:05:36.009Z,98.37
2022-11-29T05:08:24.890Z,99.22
2022-11-29T05:11:06.664Z,99.31
2022-11-29T05:13:46.685Z,98.97
2022-11-29T05:16:43.976Z,99.35
2022-11-29T05:19:44.528Z,98.33
2022-11-29T05:22:32.519Z,98.75
2022-11-29T05:25:31.709Z,99.13
2022-11-29T05:28:10.622Z,99.08
2022-11-29T05:31:12.513Z,99.56
2022-11-29T05:34:06.724Z,99.54
2022-11-29T05:36:45.156Z,99.19
2022-11-29T05:39:35.133Z,98.59
2022-11-29T05:42:26.913Z,98.58
2022-11-29T05:45:05.635Z,99.16
2022-11-29T05:47:45.072Z,98.79
2022-11-29T05:50:25.153Z,99.59
2022-11-29T05:53:12.513Z,99.27
2022-11-29T05:55:55.807Z,99.28
2022-11-29T05:58:34.890Z,99.58
2022-11-29T06:01:18.518Z,99.96
2022-11-29T06:04:04.557Z,99.68
2022-11-29T06:06:44.288Z,99.52
2022-11-29T06:09:24.886Z,99.54
2022-11-29T06:12:05.169Z,98.09
2022-11-29T06:15:01.929Z,99.29
2022-11-29T06:17:48.639Z,99.18
2022-11-29T06:20:35.967Z,99.49
2022-11-29T06:23:28.866Z,99.37
2022-11-29T06:26:16.991Z,99.51
2022-11-29T06:29:01.522Z,99.76
2022-11-29T06:31:40.251Z,98.77
2022-11-29T06:34:26.241Z,98.83
2022-11-29T06:37:09.900Z,99.10
2022-11-29T06:39:43.261Z,99.62
2022-11-29T06:42:17.495Z,99.45
2022-11-29T06:44:50.809Z,100.00
2022-11-29T06:47:29.031Z,99.94
2022-11-29T06:50:05.293Z,99.49
2022-11-29T06:52:45.048Z,99.43
2022-11-29T06:55:25.272Z,99.12
2022-11-29T06:58:08.236Z,98.45
2022-11-29T07:00:51.435Z,98.80
2022-11-29T07:03:50.492Z,99.00
2022-11-29T07:06:27.020Z,98.50
2022-11-29T07:09:02.814Z,98.65
2022-11-29T07:11:36.223Z,99.32
2022-11-29T07:14:11.653Z,99.50
2022-11-29T07:16:57.647Z,100.00
2022-11-29T07:19:39.728Z,99.35
2022-11-29T07:22:30.744Z,99.23
2022-11-29T07:25:17.579Z,99.01
2022-11-29T07:28:02.412Z,98.73
2022-11-29T07:30:51.071Z,98.53
2022-11-29T07:33:31.583Z,99.10
2022-11-29T07:36:15.331Z,98.78
2022-11-29T07:39:00.524Z,98.30
2022-11-29T07:41:41.698Z,97.95
2022-11-29T07:44:27.249Z,99.08
2022-11-29T07:47:01.438Z,99.94
2022-11-29T07:49:34.385Z,99.90
2022-11-29T07:52:07.116Z,99.35
2022-11-29T07:54:40.975Z,99.19
2022-11-29T07:57:13.750Z,99.46
2022-11-29T07:59:46.752Z,99.37
2022-11-29T08:02:29.092Z,99.34
2022-11-29T08:05:02.023Z,99.95
2022-11-29T08:07:35.610Z,100.00
2022-11-29T08:10:10.858Z,100.00
2022-11-29T08:12:44.948Z,100.00
2022-11-29T08:15:18.878Z,99.82
2022-11-29T08:17:54.162Z,100.00
2022-11-29T08:20:27.007Z,100.00
2022-11-29T08:23:00.833Z,100.00
2022-11-29T08:25:33.701Z,100.00
2022-11-29T08:28:06.962Z,100.00
2022-11-29T08:30:39.809Z,100.00
2022-11-29T08:33:14.007Z,99.66
2022-11-29T08:35:46.907Z,99.56
2022-11-29T08:38:19.679Z,99.59
2022-11-29T08:40:52.521Z,99.34
2022-11-29T08:43:25.485Z,99.74
2022-11-29T08:45:58.889Z,99.78
2022-11-29T08:48:33.806Z,99.40
2022-11-29T08:51:07.417Z,99.34
2022-11-29T08:53:41.972Z,99.58
2022-11-29T08:57:04.269Z,99.28
2022-11-29T08:59:11.274Z,99.45
2022-11-29T09:01:44.104Z,99.34
2022-11-29T09:04:18.275Z,99.39
2022-11-29T09:06:51.020Z,99.08
2022-11-29T09:09:23.740Z,99.29
2022-11-29T09:11:56.798Z,99.10
2022-11-29T09:14:29.579Z,99.11
2022-11-29T09:17:02.665Z,99.09
2022-11-29T09:19:36.871Z,98.90
2022-11-29T09:22:09.705Z,98.70
2022-11-29T09:24:42.764Z,99.37
2022-11-29T09:27:15.774Z,98.84
2022-11-29T09:29:48.616Z,98.70
2022-11-29T09:32:21.439Z,98.45
2022-11-29T09:34:55.580Z,98.58
2022-11-29T09:37:28.454Z,98.86
2022-11-29T09:40:01.264Z,98.99
2022-11-29T09:42:48.974Z,98.11
2022-11-29T09:45:30.219Z,98.74
2022-11-29T09:48:35.871Z,98.07
2022-11-29T09:51:24.037Z,98.39
2022-11-29T09:54:14.251Z,98.55
2022-11-29T09:56:50.134Z,98.65
2022-11-29T09:59:28.834Z,98.15
2022-11-29T10:02:10.512Z,98.76
2022-11-29T10:04:50.208Z,98.09
2022-11-29T10:07:31.432Z,97.33
2022-11-29T10:10:10.096Z,97.17
2022-11-29T10:12:49.368Z,97.08
2022-11-29T10:15:24.814Z,96.70
2022-11-29T10:18:02.934Z,96.65
2022-11-29T10:20:43.541Z,96.77
2022-11-29T10:23:24.928Z,96.99
2022-11-29T10:25:59.300Z,96.98
2022-11-29T10:28:34.580Z,97.42
2022-11-29T10:31:20.134Z,97.26
2022-11-29T10:33:53.414Z,97.68
2022-11-29T10:36:32.920Z,97.85
2022-11-29T10:39:14.621Z,98.17
2022-11-29T10:41:52.606Z,98.06
2022-11-29T10:44:26.352Z,98.92
2022-11-29T10:47:07.837Z,98.83
2022-11-29T10:49:43.460Z,98.53
2022-11-29T10:52:19.147Z,97.98
2022-11-29T10:54:57.182Z,97.91
2022-11-29T10:57:30.096Z,98.09
2022-11-29T11:00:07.686Z,98.38
2022-11-29T11:02:41.600Z,97.81
2022-11-29T11:05:18.823Z,98.36
2022-11-29T11:07:57.934Z,98.32
2022-11-29T11:10:32.603Z,97.97
2022-11-29T11:13:08.623Z,97.40
2022-11-29T11:15:41.696Z,97.53
2022-11-29T11:18:22.010Z,97.62
2022-11-29T11:20:57.584Z,97.60
2022-11-29T11:23:33.292Z,97.51
2022-11-29T11:26:09.892Z,97.46
2022-11-29T11:28:49.405Z,97.56
2022-11-29T11:31:32.371Z,97.84
2022-11-29T11:34:29.445Z,97.79
2022-11-29T11:37:21.518Z,97.42
2022-11-29T11:39:57.084Z,97.72
2022-11-29T11:42:38.553Z,97.16
2022-11-29T11:45:32.804Z,96.77
2022-11-29T11:48:14.158Z,96.73
2022-11-29T11:50:52.276Z,95.93
2022-11-29T11:53:28.350Z,95.86
2022-11-29T11:56:03.854Z,95.42
2022-11-29T11:58:40.109Z,96.07
2022-11-29T12:01:24.129Z,96.65
2022-11-29T12:04:02.616Z,96.31
2022-11-29T12:06:44.610Z,96.59
2022-11-29T12:09:26.196Z,97.53
2022-11-29T12:12:09.763Z,96.86
2022-11-29T12:14:54.189Z,97.32
2022-11-29T12:17:34.237Z,97.27
2022-11-29T12:20:23.094Z,96.85
2022-11-29T12:23:10.257Z,96.75
2022-11-29T12:25:48.828Z,97.17
2022-11-29T12:28:25.300Z,97.05
2022-11-29T12:31:11.624Z,96.69
2022-11-29T12:33:50.655Z,96.02
2022-11-29T12:36:34.538Z,95.93
2022-11-29T12:39:20.016Z,95.64
2022-11-29T12:41:58.087Z,96.05
2022-11-29T12:44:46.664Z,96.72
2022-11-29T12:47:38.393Z,96.48
2022-11-29T12:50:27.350Z,96.52
2022-11-29T12:53:14.990Z,96.54
2022-11-29T12:55:53.971Z,96.13
2022-11-29T12:58:33.973Z,95.97
2022-11-29T13:01:16.603Z,96.68
2022-11-29T13:03:59.891Z,95.58
2022-11-29T13:06:42.437Z,96.00
2022-11-29T13:09:40.746Z,96.24
2022-11-29T13:12:21.451Z,96.41
2022-11-29T13:15:02.631Z,95.84
2022-11-29T13:17:43.157Z,95.77
2022-11-29T13:20:31.520Z,96.50
2022-11-29T13:23:15.144Z,95.57
2022-11-29T13:25:51.803Z,95.50
2022-11-29T13:28:28.488Z,95.54
2022-11-29T13:31:04.237Z,95.59
2022-11-29T13:33:48.330Z,95.28
2022-11-29T13:36:32.432Z,95.56
2022-11-29T13:39:16.954Z,95.08
2022-11-29T13:41:56.216Z,95.03
2022-11-29T13:44:36.582Z,95.43
2022-11-29T13:47:12.006Z,95.12
2022-11-29T13:49:54.357Z,95.15
2022-11-29T13:52:41.357Z,94.80
2022-11-29T13:55:28.955Z,95.21
2022-11-29T13:58:22.243Z,94.73
2022-11-29T14:04:07.030Z,94.61
2022-11-29T14:10:03.225Z,94.25
2022-11-29T14:12:40.829Z,94.36
2022-11-29T14:15:22.480Z,95.22
2022-11-29T14:17:57.837Z,94.65
2022-11-29T14:20:56.872Z,95.04
2022-11-29T14:23:38.331Z,94.45
2022-11-29T14:26:31.344Z,95.18
2022-11-29T14:29:42.403Z,94.47
2022-11-29T14:32:23.504Z,94.95
2022-11-29T14:35:02.170Z,94.73
2022-11-29T14:37:54.228Z,94.86
2022-11-29T14:40:33.079Z,94.63
2022-11-29T14:43:20.866Z,94.21
2022-11-29T14:46:09.253Z,94.30
2022-11-29T14:48:46.781Z,94.06
2022-11-29T14:51:20.769Z,94.08
2022-11-29T14:54:06.424Z,94.04
2022-11-29T14:56:42.789Z,94.43
2022-11-29T14:59:46.342Z,93.47
2022-11-29T15:02:28.519Z,94.45
2022-11-29T15:05:14.356Z,94.19
2022-11-29T15:07:53.996Z,94.73
2022-11-29T15:10:31.779Z,94.82
2022-11-29T15:13:05.701Z,94.84
2022-11-29T15:16:10.361Z,95.19
2022-11-29T15:19:01.950Z,95.40
2022-11-29T15:21:46.096Z,94.98
2022-11-29T15:24:19.839Z,95.12
2022-11-29T15:26:58.559Z,94.98
2022-11-29T15:29:32.310Z,95.08
2022-11-29T15:32:07.956Z,95.76
2022-11-29T15:34:45.100Z,95.44
2022-11-29T15:37:24.487Z,94.97
2022-11-29T15:40:05.880Z,95.68
2022-11-29T15:42:41.475Z,95.89
2022-11-29T15:45:32.992Z,95.89
2022-11-29T15:48:17.522Z,95.89
2022-11-29T15:51:03.508Z,96.10
2022-11-29T15:53:41.336Z,96.08
2022-11-29T15:56:18.581Z,96.00
2022-11-29T15:58:57.958Z,95.97
2022-11-29T16:01:31.005Z,95.35
2022-11-29T16:04:05.764Z,94.64
2022-11-29T16:06:42.352Z,95.02
2022-11-29T16:09:19.687Z,94.93
2022-11-29T16:11:52.755Z,94.41
2022-11-29T16:14:28.039Z,94.44
2022-11-29T16:17:03.423Z,94.46
2022-11-29T16:19:39.214Z,94.74
2022-11-29T16:22:18.095Z,94.80
2022-11-29T16:25:01.497Z,94.44
2022-11-29T16:27:36.319Z,94.46
2022-11-29T16:30:21.472Z,94.05
2022-11-29T16:32:56.113Z,94.94
2022-11-29T16:35:33.642Z,94.94
2022-11-29T16:38:07.085Z,95.08
2022-11-29T16:40:39.927Z,94.80
2022-11-29T16:43:23.806Z,95.18
2022-11-29T16:46:29.962Z,94.90
2022-11-29T16:49:04.039Z,95.52
2022-11-29T16:51:47.989Z,95.19
2022-11-29T16:54:24.239Z,95.77
2022-11-29T16:56:58.390Z,95.65
2022-11-29T16:59:32.598Z,95.01
2022-11-29T17:02:11.435Z,94.87
2022-11-29T17:04:45.648Z,95.26
2022-11-29T17:07:26.705Z,95.91
2022-11-29T17:10:00.792Z,95.93
2022-11-29T17:12:33.541Z,95.37
2022-11-29T17:15:07.260Z,95.95
2022-11-29T17:17:42.374Z,96.30
2022-11-29T17:20:15.497Z,95.91
2022-11-29T17:22:49.665Z,96.01
2022-11-29T17:25:22.457Z,96.30
2022-11-29T17:27:55.788Z,95.91
2022-11-29T17:30:29.916Z,95.75
2022-11-29T17:33:02.777Z,95.92
2022-11-29T17:35:36.004Z,95.93
2022-11-29T17:38:10.159Z,95.81
2022-11-29T17:40:42.956Z,95.91
2022-11-29T17:43:15.936Z,96.30
2022-11-29T17:45:48.768Z,96.23
2022-11-29T17:48:21.767Z,96.40
2022-11-29T17:51:00.319Z,96.45
2022-11-29T17:53:35.444Z,96.61
2022-11-29T17:56:10.302Z,96.54
2022-11-29T17:58:43.672Z,96.57
2022-11-29T18:01:18.452Z,96.64
2022-11-29T18:03:53.474Z,97.25
2022-11-29T18:06:28.837Z,97.58
2022-11-29T18:09:04.373Z,98.17
2022-11-29T18:11:46.836Z,97.90
2022-11-29T18:14:24.035Z,98.09
2022-11-29T18:16:57.127Z,98.24
2022-11-29T18:19:31.406Z,98.17
2022-11-29T18:22:04.245Z,98.20
2022-11-29T18:24:41.153Z,98.42
2022-11-29T18:27:13.973Z,98.52
2022-11-29T18:29:46.993Z,98.45
2022-11-29T18:32:19.943Z,98.46
2022-11-29T18:34:52.931Z,98.27
2022-11-29T18:37:57.173Z,98.26
2022-11-29T18:40:20.265Z,98.88
2022-11-29T18:42:53.314Z,99.40
2022-11-29T18:45:26.107Z,99.39
2022-11-29T18:47:59.716Z,99.01
2022-11-29T18:50:33.043Z,98.87
2022-11-29T18:53:05.837Z,99.12
2022-11-29T18:55:40.003Z,99.73
2022-11-29T18:58:13.023Z,99.77
2022-11-29T19:00:45.955Z,99.69
2022-11-29T19:03:19.228Z,100.00
2022-11-29T19:05:53.200Z,100.00
2022-11-29T19:08:26.116Z,100.00
2022-11-29T19:11:00.609Z,100.00
2022-11-29T19:13:33.947Z,100.00
2022-11-29T19:16:13.020Z,100.00
2022-11-29T19:18:46.781Z,100.00
2022-11-29T19:21:20.868Z,100.00
2022-11-29T19:23:55.630Z,100.00
2022-11-29T19:26:31.612Z,100.00
2022-11-29T19:29:04.430Z,99.91
2022-11-29T19:31:39.188Z,99.97
2022-11-29T19:34:12.247Z,99.80
2022-11-29T19:36:45.579Z,99.91
2022-11-29T19:39:18.671Z,100.00
2022-11-29T19:41:52.842Z,99.97
2022-11-29T19:44:29.923Z,100.00
2022-11-29T19:47:03.163Z,100.00
2022-11-29T19:49:36.834Z,100.00
2022-11-29T19:52:09.587Z,100.00
2022-11-29T19:54:42.793Z,100.00
2022-11-29T19:57:19.284Z,100.00
2022-11-29T19:59:52.080Z,99.77
2022-11-29T20:02:25.087Z,100.00
2022-11-29T20:04:58.093Z,100.00
2022-11-29T20:07:31.227Z,100.00
2022-11-29T20:10:04.706Z,100.00
2022-11-29T20:12:38.871Z,100.00
2022-11-29T20:15:11.835Z,100.00
2022-11-29T20:17:45.144Z,99.99
2022-11-29T20:20:18.165Z,100.00
2022-11-29T20:22:53.317Z,100.00
2022-11-29T20:25:26.388Z,99.85
2022-11-29T20:28:00.720Z,99.84
2022-11-29T20:30:35.081Z,100.00
2022-11-29T20:33:08.027Z,99.96
2022-11-29T20:35:41.250Z,100.00
2022-11-29T20:38:24.836Z,100.00
2022-11-29T20:41:03.158Z,100.00
2022-11-29T20:43:45.445Z,100.00
2022-11-29T20:46:18.656Z,100.00
2022-11-29T20:48:51.938Z,100.00
2022-11-29T20:51:29.421Z,100.00
2022-11-29T20:54:04.614Z,100.00
2022-11-29T20:56:37.408Z,100.00
2022-11-29T20:59:11.515Z,100.00
2022-11-29T21:01:44.317Z,100.00
2022-11-29T21:04:22.869Z,100.00
2022-11-29T21:06:56.709Z,100.00
2022-11-29T21:09:29.706Z,100.00
2022-11-29T21:12:02.757Z,100.00
2022-11-29T21:14:37.710Z,100.00
2022-11-29T21:17:11.070Z,100.00
2022-11-29T21:19:44.297Z,100.00
2022-11-29T21:22:24.538Z,100.00
2022-11-29T21:25:09.641Z,100.00
2022-11-29T21:27:43.065Z,99.91
2022-11-29T21:30:20.276Z,99.76
2022-11-29T21:32:53.769Z,100.00
2022-11-29T21:35:26.540Z,100.00
2022-11-29T21:38:02.021Z,100.00
2022-11-29T21:40:34.893Z,100.00
2022-11-29T21:43:07.671Z,100.00
2022-11-29T21:45:41.894Z,100.00
2022-11-29T21:48:28.598Z,100.00
2022-11-29T21:51:01.417Z,100.00
2022-11-29T21:53:34.601Z,100.00
2022-11-29T21:56:09.822Z,100.00
2022-11-29T21:58:42.709Z,100.00
2022-11-29T22:01:19.147Z,100.00
2022-11-29T22:03:54.035Z,100.00
2022-11-29T22:06:29.086Z,100.00
2022-11-29T22:09:02.222Z,100.00
2022-11-29T22:11:35.535Z,100.00
2022-11-29T22:14:17.912Z,100.00
2022-11-29T22:16:53.977Z,100.00
2022-11-29T22:19:28.518Z,100.00
2022-11-29T22:22:03.529Z,100.00
2022-11-29T22:24:37.935Z,100.00
2022-11-29T22:27:10.644Z,100.00
2022-11-29T22:29:43.416Z,100.00
2022-11-29T22:32:18.652Z,100.00
2022-11-29T22:34:51.663Z,100.00
2022-11-29T22:37:24.575Z,100.00
2022-11-29T22:39:57.531Z,100.00
2022-11-29T22:42:30.303Z,100.00
2022-11-29T22:45:04.074Z,100.00
2022-11-29T22:47:38.584Z,100.00
2022-11-29T22:50:12.368Z,100.00
2022-11-29T22:52:45.132Z,100.00
2022-11-29T22:55:17.929Z,100.00
2022-11-29T22:57:50.666Z,100.00
2022-11-29T23:00:23.442Z,100.00
2022-11-29T23:03:00.109Z,100.00
2022-11-29T23:05:34.111Z,100.00
2022-11-29T23:08:07.032Z,100.00
2022-11-29T23:10:39.819Z,100.00
2022-11-29T23:13:12.643Z,100.00
2022-11-29T23:15:45.353Z,100.00
2022-11-29T23:18:19.999Z,100.00
2022-11-29T23:20:52.941Z,100.00
2022-11-29T23:23:28.680Z,100.00
2022-11-29T23:26:02.093Z,100.00
2022-11-29T23:28:36.208Z,100.00
2022-11-29T23:31:08.992Z,100.00
2022-11-29T23:33:43.205Z,100.00
2022-11-29T23:36:17.001Z,100.00
2022-11-29T23:38:49.854Z,100.00
2022-11-29T23:41:22.670Z,100.00
2022-11-29T23:43:55.587Z,100.00
2022-11-29T23:46:28.373Z,100.00
2022-11-29T23:49:02.454Z,100.00
2022-11-29T23:51:35.223Z,100.00
2022-11-29T23:54:08.080Z,100.00
2022-11-29T23:56:40.886Z,100.00
2022-11-29T23:59:13.911Z,99.93
